Time;durP1;ratioP1;P1;durP2;ratioP2;P2;SDS_P1;SDS_P2;PMS_P1;PMS_P2;Temp;Humidity;BMP_temperature;BMP_pressure;BME280_temperature;BME280_humidity;BME280_pressure;Samples;Min_cycle;Max_cycle;Signal;HPM_P1;HPM_P2
2022/11/04 00:01:49;;;;;;;20.10;8.00;;;;;;;9.60;99.30;100098.13;638127;1298;140270;-83
2022/11/04 00:47:37;;;;;;;19.10;8.10;;;;;;;9.84;97.79;100073.84;637630;1315;139717;-84
2022/11/04 01:02:40;;;;;;;17.60;7.80;;;;;;;9.86;97.27;100050.08;637476;1300;139286;-83
2022/11/04 01:17:44;;;;;;;16.50;8.20;;;;;;;9.96;97.32;100021.94;637769;1299;138487;-83
2022/11/04 01:32:47;;;;;;;18.80;8.70;;;;;;;9.95;96.85;99979.75;637256;1313;139311;-83
2022/11/04 01:48:11;;;;;;;21.20;8.10;;;;;;;10.06;96.20;99975.40;637315;1299;140791;-83
2022/11/04 02:03:19;;;;;;;17.40;7.60;;;;;;;10.09;96.41;99952.81;637685;1313;139843;-84
2022/11/04 02:18:37;;;;;;;14.90;8.30;;;;;;;10.13;96.24;99929.54;636852;1315;140194;-84
2022/11/04 02:33:52;;;;;;;13.60;8.00;;;;;;;10.24;95.10;99908.60;636785;1297;139485;-83
2022/11/04 02:49:05;;;;;;;16.80;7.60;;;;;;;10.14;95.85;99895.84;636794;1307;141226;-82
2022/11/04 03:04:17;;;;;;;16.70;7.60;;;;;;;10.16;95.58;99885.77;636880;1314;140005;-83
2022/11/04 03:19:40;;;;;;;15.90;6.60;;;;;;;10.23;95.56;99872.54;637124;1313;139388;-84
2022/11/04 03:34:44;;;;;;;16.60;6.60;;;;;;;10.32;94.75;99854.93;637815;1308;139228;-82
2022/11/04 03:49:50;;;;;;;19.20;7.20;;;;;;;10.37;94.37;99839.96;636754;1291;139879;-82
2022/11/04 04:05:00;;;;;;;13.20;6.80;;;;;;;10.46;93.81;99826.73;637770;1306;139443;-83
2022/11/04 04:20:11;;;;;;;11.70;6.60;;;;;;;10.48;93.29;99817.59;637335;1301;139570;-83
2022/11/04 04:50:47;;;;;;;16.40;8.70;;;;;;;10.53;92.90;99795.16;636769;1302;140794;-82
2022/11/04 05:05:50;;;;;;;19.60;8.10;;;;;;;10.58;92.41;99809.55;636363;1295;139553;-83
2022/11/04 05:20:58;;;;;;;17.40;8.30;;;;;;;10.61;92.13;99802.75;638217;1294;140285;-82
2022/11/04 05:36:09;;;;;;;17.30;8.30;;;;;;;10.52;91.86;99807.83;637156;1294;138512;-83
2022/11/04 05:51:19;;;;;;;16.30;8.50;;;;;;;10.49;91.72;99801.96;636920;1301;140331;-82
2022/11/04 06:06:24;;;;;;;12.10;6.80;;;;;;;10.45;92.25;99786.11;637111;1297;139851;-82
2022/11/04 06:21:31;;;;;;;23.60;11.20;;;;;;;10.33;92.63;99786.46;636319;1309;140112;-82
2022/11/04 06:36:35;;;;;;;31.50;14.00;;;;;;;10.39;92.87;99796.43;635554;1301;1060795;-84
2022/11/04 06:51:39;;;;;;;137.70;76.30;;;;;;;10.38;93.37;99804.95;636766;1301;140512;-82
2022/11/04 07:06:43;;;;;;;86.00;51.30;;;;;;;10.40;92.95;99787.46;636290;1301;138938;-83
2022/11/04 07:21:47;;;;;;;23.90;13.00;;;;;;;10.46;93.30;99793.65;636372;1308;139158;-82
2022/11/04 07:36:50;;;;;;;68.70;32.40;;;;;;;10.53;93.09;99778.64;637002;1292;140685;-83
2022/11/04 07:51:54;;;;;;;43.40;21.10;;;;;;;10.63;93.05;99787.86;638636;1307;139589;-83
2022/11/04 08:06:58;;;;;;;18.60;10.60;;;;;;;10.60;93.56;99783.98;638279;1293;139445;-83
2022/11/04 08:22:01;;;;;;;20.50;11.00;;;;;;;10.68;93.61;99795.81;636833;1307;138849;-82
2022/11/04 08:37:04;;;;;;;17.20;10.20;;;;;;;10.62;94.30;99787.92;644971;1314;139605;-83
2022/11/04 08:52:08;;;;;;;20.60;12.00;;;;;;;10.65;94.91;99778.77;643620;1307;141019;-83
2022/11/04 09:07:12;;;;;;;17.60;9.80;;;;;;;10.66;94.80;99761.33;639334;1308;139993;-83
2022/11/04 09:22:16;;;;;;;17.50;11.30;;;;;;;11.00;95.17;99749.27;637906;1307;139793;-84
2022/11/04 09:37:20;;;;;;;25.80;12.90;;;;;;;11.35;93.96;99733.98;637653;1308;139723;-84
2022/11/04 09:52:26;;;;;;;56.50;35.60;;;;;;;11.25;94.21;99731.79;637810;1307;139363;-83
2022/11/04 10:07:37;;;;;;;18.10;9.50;;;;;;;11.09;95.41;99707.45;637110;1295;140175;-84
2022/11/04 10:23:07;;;;;;;97.10;46.60;;;;;;;11.08;96.25;99697.38;637562;1301;139928;-82
2022/11/04 10:38:20;;;;;;;29.60;14.10;;;;;;;11.11;97.27;99688.54;636204;1308;140881;-82
2022/11/04 10:53:27;;;;;;;29.10;14.30;;;;;;;11.19;97.00;99685.20;636216;1315;140153;-82
2022/11/04 11:08:35;;;;;;;26.50;13.50;;;;;;;11.41;96.86;99682.59;637018;1308;139592;-82
2022/11/04 11:23:46;;;;;;;53.90;20.90;;;;;;;11.83;96.15;99659.48;636894;1301;141140;-83
2022/11/04 11:39:00;;;;;;;42.10;18.70;;;;;;;12.13;95.01;99652.53;636634;1289;140363;-82
2022/11/04 11:54:13;;;;;;;29.00;14.40;;;;;;;12.68;93.56;99635.82;636675;1307;140616;-82
2022/11/04 12:09:20;;;;;;;23.20;13.00;;;;;;;13.04;92.25;99625.89;638905;1313;139794;-82
2022/11/04 12:24:35;;;;;;;26.80;13.20;;;;;;;14.53;87.60;99617.70;641446;1307;140643;-82
2022/11/04 12:40:19;;;;;;;29.80;14.50;;;;;;;14.26;85.07;99605.01;637999;1307;140728;-81
2022/11/04 12:55:48;;;;;;;32.80;14.80;;;;;;;14.94;82.67;99589.41;636035;1313;139354;-81
2022/11/04 13:11:21;;;;;;;34.10;14.50;;;;;;;15.06;79.41;99578.36;637311;1297;140661;-82
2022/11/04 13:26:26;;;;;;;28.50;12.90;;;;;;;14.88;78.36;99571.15;637637;1312;139738;-82
2022/11/04 13:41:54;;;;;;;23.70;13.00;;;;;;;14.46;79.69;99566.11;636502;1298;139301;-81
2022/11/04 13:57:25;;;;;;;29.10;13.50;;;;;;;16.12;76.00;99564.52;637824;1300;141401;-82
2022/11/04 14:12:32;;;;;;;40.30;21.00;;;;;;;14.64;76.22;99570.69;636821;1294;139507;-82
2022/11/04 14:27:40;;;;;;;49.30;28.40;;;;;;;14.19;78.03;99598.77;639100;1303;139484;-82
2022/11/04 14:42:49;;;;;;;56.70;29.00;;;;;;;13.49;79.87;99607.58;639500;1310;140950;-82
2022/11/04 15:04:36;;;;;;;42.90;19.40;;;;;;;12.82;82.50;99591.34;622077;1345;928964;-82
2022/11/04 15:19:39;;;;;;;103.50;36.80;;;;;;;12.58;84.04;99602.75;631527;1307;139665;-81
2022/11/04 15:46:38;;;;;;;150.40;53.70;;;;;;;12.31;85.96;99611.11;621621;1348;1180397;-81
2022/11/04 16:01:47;;;;;;;69.00;33.90;;;;;;;12.15;86.52;99616.85;630873;1309;140070;-82
2022/11/04 16:16:52;;;;;;;119.90;39.00;;;;;;;12.13;87.17;99627.63;632519;1314;139229;-83
2022/11/04 16:32:20;;;;;;;83.90;30.20;;;;;;;11.99;88.39;99626.20;631264;1323;140392;-82
2022/11/04 16:47:24;;;;;;;80.90;29.20;;;;;;;11.89;88.82;99621.96;633405;1315;139416;-82
2022/11/04 17:02:30;;;;;;;69.40;26.60;;;;;;;11.80;89.26;99628.40;632885;1315;139006;-82
2022/11/04 17:17:34;;;;;;;35.60;15.70;;;;;;;11.70;90.19;99621.84;630415;1307;138311;-82
2022/11/04 17:32:38;;;;;;;38.10;18.60;;;;;;;11.62;91.18;99615.55;630978;1316;139539;-82
2022/11/04 17:47:41;;;;;;;43.30;20.50;;;;;;;11.52;92.13;99603.95;631350;1309;139746;-82
2022/11/04 18:02:45;;;;;;;67.70;24.00;;;;;;;11.55;92.57;99604.34;631021;1308;139916;-82
2022/11/04 18:17:51;;;;;;;57.30;23.30;;;;;;;11.57;92.67;99602.76;631993;1306;138608;-82
2022/11/04 18:32:54;;;;;;;73.00;28.00;;;;;;;11.61;92.64;99595.09;631475;1310;139540;-82
2022/11/04 18:47:59;;;;;;;77.80;29.50;;;;;;;11.54;92.80;99584.79;631915;1300;140561;-82
2022/11/04 19:03:03;;;;;;;74.40;25.90;;;;;;;11.51;93.04;99595.42;631271;1306;139817;-83
2022/11/04 19:18:07;;;;;;;62.40;26.00;;;;;;;11.48;93.37;99598.05;631938;1311;139448;-82
2022/11/04 19:33:10;;;;;;;50.00;23.20;;;;;;;11.40;94.04;99592.15;630851;1317;140733;-82
2022/11/04 19:48:17;;;;;;;31.00;16.40;;;;;;;11.42;94.19;99589.36;630832;1314;138880;-82
2022/11/04 20:03:20;;;;;;;44.10;22.90;;;;;;;11.43;94.51;99600.45;630521;1307;138573;-81
2022/11/04 20:18:25;;;;;;;24.80;14.40;;;;;;;11.38;94.86;99595.00;631193;1323;139880;-81
2022/11/04 20:33:28;;;;;;;20.10;11.80;;;;;;;11.38;95.57;99593.27;630871;1314;140355;-82
2022/11/04 20:48:33;;;;;;;17.10;10.60;;;;;;;11.39;95.51;99608.70;630530;1310;140163;-82
2022/11/04 21:03:36;;;;;;;14.90;9.30;;;;;;;11.39;95.47;99608.69;631171;1308;138805;-81
2022/11/04 21:18:40;;;;;;;18.50;9.80;;;;;;;11.37;95.97;99607.49;630914;1301;140612;-81
2022/11/04 21:33:43;;;;;;;47.30;21.30;;;;;;;11.24;96.96;99601.36;631933;1300;139265;-82
2022/11/04 21:48:47;;;;;;;33.50;17.30;;;;;;;11.09;98.74;99597.27;630693;1304;140571;-82
2022/11/04 22:03:52;;;;;;;16.90;9.60;;;;;;;10.91;99.60;99596.44;631850;1303;138743;-82
2022/11/04 22:19:02;;;;;;;19.80;10.60;;;;;;;10.72;100.00;99582.80;634347;1325;138799;-83
2022/11/04 22:34:05;;;;;;;18.00;9.60;;;;;;;10.58;100.00;99588.31;639253;1298;138664;-83
2022/11/04 22:49:09;;;;;;;15.90;9.40;;;;;;;10.56;100.00;99586.65;639262;1307;138749;-84
2022/11/04 23:04:12;;;;;;;29.30;13.50;;;;;;;10.43;100.00;99584.39;639444;1313;139096;-84
2022/11/04 23:19:16;;;;;;;27.00;13.60;;;;;;;10.41;100.00;99588.73;640813;1313;139016;-85
